Terminal Aerodrome Forecast
Issued by NWS

Home | Current Version | Previous Version | Text Only | Print | Product List | Glossary On
Versions: 1 2 3 4 5 6 7 8 9 10 11 12 13 14 15 16
000
FTUS46 KSGX 281700
TAFTRM
TAF
KTRM 281731Z 2818/2918 VRB05KT P6SM BKN150
     FM281900 14007KT P6SM VCTS SCT080CB BKN150
     FM290500 32011KT P6SM FEW080 SCT200
     FM291000 VRB05KT P6SM SCT250=

USA.gov is the U.S. government's official web portal to all federal, state and local government web resources and services.